TDCF/DCF METAR and TAF weather

Enter ICAO airport designator
Station Type Date Time Source
TDCF METAR 2019/12/07 17:00 UTC NOAA

TDCF 071700Z 07003KT 9999 -SHRA BKN016 29/25 Q1013


Station Type Date Time Source
TDCF Decoded METAR 2019/12/07 17:00 UTC NOAA

Canefield Airport, Dominica (TDCF) 15-32N 061-24W 5M
Dec 07, 2019 - 12:00 PM EST / 2019.12.07 1700 UTC
Wind: from the ENE (070 degrees) at 3 MPH (3 KT):0
Visibility: greater than 7 mile(s):0
Sky conditions: mostly cloudy
Weather: light rain showers
Temperature: 84 F (29 C)
Dew Point: 77 F (25 C)
Relative Humidity: 79%
Pressure (altimeter): 29.91 in. Hg (1013 hPa)
ob: TDCF 071700Z 07003KT 9999 -SHRA BKN016 29/25 Q1013
cycle: 17

Station Type Date Time Source
TDCF TAF 2012/05/01 18:15 UTC NOAA

TAF TDCF 011600Z 0118/0218 110010KT 9999 SCT018 BKN030
TEMPO 0118/0206 6000 SHRA BKN014 BKN070

Example: see airport list